sensor_id;sensor_type;location;lat;lon;timestamp;pressure;altitude;pressure_sealevel;temperature;humidity
36354;BME280;22383;51.114;13.666;2023-04-08T00:02:04;67449.69;;;2.27;100.00
36354;BME280;22383;51.114;13.666;2023-04-08T00:04:31;67446.53;;;2.26;100.00
36354;BME280;22383;51.114;13.666;2023-04-08T00:06:59;67448.56;;;2.26;100.00
36354;BME280;22383;51.114;13.666;2023-04-08T00:09:26;67444.28;;;2.24;100.00
36354;BME280;22383;51.114;13.666;2023-04-08T00:11:54;67448.22;;;2.28;100.00
36354;BME280;22383;51.114;13.666;2023-04-08T00:14:23;67452.50;;;2.30;100.00
36354;BME280;22383;51.114;13.666;2023-04-08T00:16:50;67449.91;;;2.30;100.00
36354;BME280;22383;51.114;13.666;2023-04-08T00:19:17;67449.34;;;2.29;100.00
36354;BME280;22383;51.114;13.666;2023-04-08T00:21:44;67452.72;;;2.32;100.00
36354;BME280;22383;51.114;13.666;2023-04-08T00:24:18;67451.41;;;2.29;100.00
36354;BME280;22383;51.114;13.666;2023-04-08T00:26:45;67404.59;;;2.31;100.00
36354;BME280;22383;51.114;13.666;2023-04-08T00:29:13;67445.63;;;2.28;100.00
36354;BME280;22383;51.114;13.666;2023-04-08T00:31:40;67443.00;;;2.28;100.00
36354;BME280;22383;51.114;13.666;2023-04-08T00:34:13;67448.78;;;2.29;100.00
36354;BME280;22383;51.114;13.666;2023-04-08T00:36:40;67444.69;;;2.30;100.00
36354;BME280;22383;51.114;13.666;2023-04-08T00:39:07;67455.34;;;2.32;100.00
36354;BME280;22383;51.114;13.666;2023-04-08T00:41:35;67454.97;;;2.34;100.00
36354;BME280;22383;51.114;13.666;2023-04-08T00:44:02;67460.41;;;2.37;100.00
36354;BME280;22383;51.114;13.666;2023-04-08T00:46:35;67459.13;;;2.40;100.00
36354;BME280;22383;51.114;13.666;2023-04-08T00:49:04;67459.47;;;2.38;100.00
36354;BME280;22383;51.114;13.666;2023-04-08T00:51:32;67456.31;;;2.38;100.00
36354;BME280;22383;51.114;13.666;2023-04-08T00:53:59;67461.16;;;2.40;100.00
36354;BME280;22383;51.114;13.666;2023-04-08T00:56:26;67457.06;;;2.41;100.00
36354;BME280;22383;51.114;13.666;2023-04-08T00:58:54;67414.75;;;2.40;100.00
36354;BME280;22383;51.114;13.666;2023-04-08T01:04:24;67464.00;;;2.42;100.00
36354;BME280;22383;51.114;13.666;2023-04-08T01:07:21;67467.16;;;2.43;100.00
36354;BME280;22383;51.114;13.666;2023-04-08T01:09:54;67466.78;;;2.45;100.00
36354;BME280;22383;51.114;13.666;2023-04-08T01:12:28;67425.22;;;2.48;100.00
36354;BME280;22383;51.114;13.666;2023-04-08T01:15:06;67464.41;;;2.48;100.00
36354;BME280;22383;51.114;13.666;2023-04-08T01:17:36;67469.63;;;2.48;100.00
36354;BME280;22383;51.114;13.666;2023-04-08T01:20:05;67475.03;;;2.50;100.00
36354;BME280;22383;51.114;13.666;2023-04-08T01:28:02;67476.94;;;2.54;100.00
36354;BME280;22383;51.114;13.666;2023-04-08T01:30:31;67476.94;;;2.54;100.00
36354;BME280;22383;51.114;13.666;2023-04-08T01:33:01;67475.44;;;2.55;100.00
36354;BME280;22383;51.114;13.666;2023-04-08T01:35:34;67481.44;;;2.58;100.00
36354;BME280;22383;51.114;13.666;2023-04-08T01:38:04;67479.41;;;2.59;100.00
36354;BME280;22383;51.114;13.666;2023-04-08T01:40:36;67485.38;;;2.62;100.00
36354;BME280;22383;51.114;13.666;2023-04-08T01:43:07;67488.00;;;2.62;100.00
36354;BME280;22383;51.114;13.666;2023-04-08T01:45:37;67493.63;;;2.67;100.00
36354;BME280;22383;51.114;13.666;2023-04-08T01:48:05;67491.03;;;2.67;100.00
36354;BME280;22383;51.114;13.666;2023-04-08T01:50:33;67488.41;;;2.67;100.00
36354;BME280;22383;51.114;13.666;2023-04-08T01:53:01;67490.09;;;2.69;100.00
36354;BME280;22383;51.114;13.666;2023-04-08T01:55:32;67494.41;;;2.70;100.00
36354;BME280;22383;51.114;13.666;2023-04-08T01:58:00;67492.13;;;2.68;100.00
36354;BME280;22383;51.114;13.666;2023-04-08T02:00:30;67494.97;;;2.71;100.00
36354;BME280;22383;51.114;13.666;2023-04-08T02:02:59;67495.75;;;2.74;100.00
36354;BME280;22383;51.114;13.666;2023-04-08T02:05:27;67498.69;;;2.72;100.00
36354;BME280;22383;51.114;13.666;2023-04-08T02:07:55;67499.28;;;2.72;100.00
36354;BME280;22383;51.114;13.666;2023-04-08T02:10:23;67493.47;;;2.72;100.00
36354;BME280;22383;51.114;13.666;2023-04-08T02:12:50;67500.59;;;2.76;100.00
36354;BME280;22383;51.114;13.666;2023-04-08T02:15:19;67504.31;;;2.77;100.00
36354;BME280;22383;51.114;13.666;2023-04-08T02:17:59;67500.59;;;2.76;100.00
36354;BME280;22383;51.114;13.666;2023-04-08T02:20:45;67501.72;;;2.77;100.00
36354;BME280;22383;51.114;13.666;2023-04-08T02:23:24;67505.66;;;2.80;100.00
36354;BME280;22383;51.114;13.666;2023-04-08T02:25:55;67506.03;;;2.78;100.00
36354;BME280;22383;51.114;13.666;2023-04-08T02:28:27;67506.78;;;2.81;100.00
36354;BME280;22383;51.114;13.666;2023-04-08T02:30:56;67499.88;;;2.80;100.00
36354;BME280;22383;51.114;13.666;2023-04-08T02:33:25;67507.34;;;2.82;100.00
36354;BME280;22383;51.114;13.666;2023-04-08T02:35:56;67503.97;;;2.79;100.00
36354;BME280;22383;51.114;13.666;2023-04-08T02:38:34;67505.09;;;2.80;100.00
36354;BME280;22383;51.114;13.666;2023-04-08T02:41:09;67506.22;;;2.81;100.00
36354;BME280;22383;51.114;13.666;2023-04-08T02:43:36;67457.53;;;2.79;100.00
36354;BME280;22383;51.114;13.666;2023-04-08T02:46:05;67505.31;;;2.82;100.00
36354;BME280;22383;51.114;13.666;2023-04-08T02:48:35;67511.28;;;2.86;100.00
36354;BME280;22383;51.114;13.666;2023-04-08T02:51:04;67510.94;;;2.88;100.00
36354;BME280;22383;51.114;13.666;2023-04-08T02:53:32;67515.22;;;2.89;100.00
36354;BME280;22383;51.114;13.666;2023-04-08T02:55:59;67520.13;;;2.91;100.00
36354;BME280;22383;51.114;13.666;2023-04-08T02:58:26;67513.56;;;2.88;100.00
36354;BME280;22383;51.114;13.666;2023-04-08T03:00:53;67514.13;;;2.88;100.00
36354;BME280;22383;51.114;13.666;2023-04-08T03:03:21;67514.31;;;2.91;100.00
36354;BME280;22383;51.114;13.666;2023-04-08T03:05:56;67512.84;;;2.92;100.00
36354;BME280;22383;51.114;13.666;2023-04-08T03:08:23;67516.00;;;2.92;100.00
36354;BME280;22383;51.114;13.666;2023-04-08T03:10:51;67520.69;;;2.92;100.00
36354;BME280;22383;51.114;13.666;2023-04-08T03:13:19;67520.69;;;2.92;100.00
36354;BME280;22383;51.114;13.666;2023-04-08T03:15:50;67520.88;;;2.94;100.00
36354;BME280;22383;51.114;13.666;2023-04-08T03:18:24;67514.31;;;2.91;100.00
36354;BME280;22383;51.114;13.666;2023-04-08T03:20:51;67520.13;;;2.91;100.00
36354;BME280;22383;51.114;13.666;2023-04-08T03:23:18;67514.91;;;2.91;100.00
36354;BME280;22383;51.114;13.666;2023-04-08T03:25:45;67520.31;;;2.94;100.00
36354;BME280;22383;51.114;13.666;2023-04-08T03:28:13;67523.13;;;2.96;100.00
36354;BME280;22383;51.114;13.666;2023-04-08T03:30:40;67523.47;;;2.94;100.00
36354;BME280;22383;51.114;13.666;2023-04-08T03:33:07;67520.88;;;2.94;100.00
36354;BME280;22383;51.114;13.666;2023-04-08T03:35:38;67526.88;;;2.97;100.00
36354;BME280;22383;51.114;13.666;2023-04-08T03:38:05;67522.78;;;2.98;100.00
36354;BME280;22383;51.114;13.666;2023-04-08T03:40:34;67525.75;;;2.96;100.00
36354;BME280;22383;51.114;13.666;2023-04-08T03:43:02;67524.25;;;2.97;100.00
36354;BME280;22383;51.114;13.666;2023-04-08T03:45:29;67526.50;;;2.99;100.00
36354;BME280;22383;51.114;13.666;2023-04-08T03:47:58;67526.50;;;2.99;100.00
36354;BME280;22383;51.114;13.666;2023-04-08T03:50:32;67522.78;;;2.98;100.00
36354;BME280;22383;51.114;13.666;2023-04-08T03:53:02;67527.09;;;3.00;100.00
36354;BME280;22383;51.114;13.666;2023-04-08T03:55:30;67525.94;;;2.99;100.00
36354;BME280;22383;51.114;13.666;2023-04-08T03:57:58;67524.25;;;2.97;100.00
36354;BME280;22383;51.114;13.666;2023-04-08T04:00:25;67526.50;;;2.99;100.00
36354;BME280;22383;51.114;13.666;2023-04-08T04:02:53;67522.41;;;3.00;100.00
36354;BME280;22383;51.114;13.666;2023-04-08T04:05:22;67524.81;;;2.98;100.00
36354;BME280;22383;51.114;13.666;2023-04-08T04:07:53;67528.75;;;3.01;100.00
36354;BME280;22383;51.114;13.666;2023-04-08T04:10:21;67526.50;;;2.99;100.00
36354;BME280;22383;51.114;13.666;2023-04-08T04:12:50;67536.84;;;3.11;100.00
36354;BME280;22383;51.114;13.666;2023-04-08T04:15:21;67537.00;;;3.07;100.00
36354;BME280;22383;51.114;13.666;2023-04-08T04:17:48;67530.44;;;3.03;100.00
36354;BME280;22383;51.114;13.666;2023-04-08T04:20:17;67538.91;;;3.11;100.00
36354;BME280;22383;51.114;13.666;2023-04-08T04:22:44;67531.22;;;3.06;100.00
36354;BME280;22383;51.114;13.666;2023-04-08T04:25:21;67537.22;;;3.09;100.00
36354;BME280;22383;51.114;13.666;2023-04-08T04:27:48;67533.47;;;3.08;100.00
36354;BME280;22383;51.114;13.666;2023-04-08T04:30:19;67544.56;;;3.16;100.00
36354;BME280;22383;51.114;13.666;2023-04-08T04:32:47;67498.06;;;3.16;100.00
36354;BME280;22383;51.114;13.666;2023-04-08T04:35:15;67536.84;;;3.11;100.00
36354;BME280;22383;51.114;13.666;2023-04-08T04:37:43;67533.84;;;3.06;100.00
36354;BME280;22383;51.114;13.666;2023-04-08T04:40:11;67533.28;;;3.06;100.00
36354;BME280;22383;51.114;13.666;2023-04-08T04:42:41;67538.19;;;3.15;100.00
36354;BME280;22383;51.114;13.666;2023-04-08T04:45:08;67542.84;;;3.14;100.00
36354;BME280;22383;51.114;13.666;2023-04-08T04:47:36;67551.84;;;3.22;100.00
36354;BME280;22383;51.114;13.666;2023-04-08T04:50:04;67539.69;;;3.14;100.00
36354;BME280;22383;51.114;13.666;2023-04-08T04:52:38;67550.19;;;3.21;100.00
36354;BME280;22383;51.114;13.666;2023-04-08T04:55:19;67554.31;;;3.27;100.00
36354;BME280;22383;51.114;13.666;2023-04-08T04:57:48;67550.94;;;3.24;100.00
36354;BME280;22383;51.114;13.666;2023-04-08T05:00:15;67564.28;;;3.34;100.00
36354;BME280;22383;51.114;13.666;2023-04-08T05:02:47;67564.28;;;3.34;100.00
36354;BME280;22383;51.114;13.666;2023-04-08T05:05:14;67559.22;;;3.36;100.00
36354;BME280;22383;51.114;13.666;2023-04-08T05:07:42;67573.28;;;3.42;100.00
36354;BME280;22383;51.114;13.666;2023-04-08T05:10:13;67576.09;;;3.45;100.00
36354;BME280;22383;51.114;13.666;2023-04-08T05:12:40;67586.06;;;3.51;100.00
36354;BME280;22383;51.114;13.666;2023-04-08T05:15:08;67589.06;;;3.56;100.00
36354;BME280;22383;51.114;13.666;2023-04-08T05:17:38;67590.56;;;3.55;100.00
36354;BME280;22383;51.114;13.666;2023-04-08T05:20:09;67590.19;;;3.57;100.00
36354;BME280;22383;51.114;13.666;2023-04-08T05:22:37;67581.59;;;3.54;100.00
36354;BME280;22383;51.114;13.666;2023-04-08T05:25:05;67592.81;;;3.57;100.00
36354;BME280;22383;51.114;13.666;2023-04-08T05:27:32;67593.22;;;3.63;100.00
36354;BME280;22383;51.114;13.666;2023-04-08T05:29:59;67599.56;;;3.64;100.00
36354;BME280;22383;51.114;13.666;2023-04-08T05:32:28;67605.22;;;3.69;100.00
36354;BME280;22383;51.114;13.666;2023-04-08T05:34:56;67607.09;;;3.73;100.00
36354;BME280;22383;51.114;13.666;2023-04-08T05:37:23;67611.41;;;3.74;100.00
36354;BME280;22383;51.114;13.666;2023-04-08T05:39:51;67611.81;;;3.79;100.00
36354;BME280;22383;51.114;13.666;2023-04-08T05:42:18;67608.44;;;3.76;100.00
36354;BME280;22383;51.114;13.666;2023-04-08T05:44:45;67618.38;;;3.83;100.00
36354;BME280;22383;51.114;13.666;2023-04-08T05:47:12;67622.34;;;3.87;100.00
36354;BME280;22383;51.114;13.666;2023-04-08T05:49:40;67619.53;;;3.84;100.00
36354;BME280;22383;51.114;13.666;2023-04-08T05:52:08;67622.88;;;3.87;100.00
36354;BME280;22383;51.114;13.666;2023-04-08T05:54:35;67618.59;;;3.86;100.00
36354;BME280;22383;51.114;13.666;2023-04-08T05:57:02;67626.28;;;3.90;100.00
36354;BME280;22383;51.114;13.666;2023-04-08T05:59:29;67623.66;;;3.90;100.00
36354;BME280;22383;51.114;13.666;2023-04-08T06:01:57;67628.53;;;3.92;100.00
36354;BME280;22383;51.114;13.666;2023-04-08T06:04:25;67622.75;;;3.92;100.00
36354;BME280;22383;51.114;13.666;2023-04-08T06:06:53;67611.06;;;3.76;100.00
36354;BME280;22383;51.114;13.666;2023-04-08T06:09:20;67625.72;;;3.90;100.00
36354;BME280;22383;51.114;13.666;2023-04-08T06:11:47;67625.72;;;3.90;100.00
36354;BME280;22383;51.114;13.666;2023-04-08T06:14:16;67625.72;;;3.90;100.00
36354;BME280;22383;51.114;13.666;2023-04-08T06:16:43;67647.50;;;4.07;100.00
36354;BME280;22383;51.114;13.666;2023-04-08T06:19:11;67663.84;;;4.22;100.00
36354;BME280;22383;51.114;13.666;2023-04-08T06:21:38;67672.72;;;4.35;100.00
36354;BME280;22383;51.114;13.666;2023-04-08T06:24:05;67674.06;;;4.39;100.00
36354;BME280;22383;51.114;13.666;2023-04-08T06:26:32;67674.44;;;4.37;100.00
36354;BME280;22383;51.114;13.666;2023-04-08T06:28:59;67678.94;;;4.41;100.00
36354;BME280;22383;51.114;13.666;2023-04-08T06:31:27;67687.03;;;4.50;100.00
36354;BME280;22383;51.114;13.666;2023-04-08T06:33:55;67693.97;;;4.52;100.00
36354;BME280;22383;51.114;13.666;2023-04-08T06:36:22;67692.84;;;4.51;100.00
36354;BME280;22383;51.114;13.666;2023-04-08T06:38:49;67695.50;;;4.58;100.00
36354;BME280;22383;51.114;13.666;2023-04-08T06:41:16;67702.22;;;4.57;100.00
36354;BME280;22383;51.114;13.666;2023-04-08T06:43:44;67703.75;;;4.63;100.00
36354;BME280;22383;51.114;13.666;2023-04-08T06:46:11;67699.22;;;4.59;100.00
36354;BME280;22383;51.114;13.666;2023-04-08T06:48:38;67703.19;;;4.63;100.00
36354;BME280;22383;51.114;13.666;2023-04-08T06:51:06;67713.50;;;4.67;100.00
36354;BME280;22383;51.114;13.666;2023-04-08T06:53:34;67712.78;;;4.71;100.00
36354;BME280;22383;51.114;13.666;2023-04-08T06:56:01;67717.50;;;4.78;100.00
36354;BME280;22383;51.114;13.666;2023-04-08T06:58:28;67719.91;;;4.76;100.00
36354;BME280;22383;51.114;13.666;2023-04-08T07:00:55;67725.94;;;4.79;100.00
36354;BME280;22383;51.114;13.666;2023-04-08T07:03:23;67671.41;;;4.72;100.00
36354;BME280;22383;51.114;13.666;2023-04-08T07:05:51;67723.31;;;4.79;100.00
36354;BME280;22383;51.114;13.666;2023-04-08T07:08:18;67721.03;;;4.77;100.00
36354;BME280;22383;51.114;13.666;2023-04-08T07:10:45;67725.56;;;4.81;100.00
36354;BME280;22383;51.114;13.666;2023-04-08T07:13:12;67724.25;;;4.77;100.00
36354;BME280;22383;51.114;13.666;2023-04-08T07:15:40;67721.03;;;4.77;100.00
36354;BME280;22383;51.114;13.666;2023-04-08T07:18:07;67723.50;;;4.81;100.00
36354;BME280;22383;51.114;13.666;2023-04-08T07:20:34;67716.72;;;4.75;100.00
36354;BME280;22383;51.114;13.666;2023-04-08T07:23:07;67703.94;;;4.66;100.00
36354;BME280;22383;51.114;13.666;2023-04-08T07:25:34;67708.63;;;4.65;100.00
36354;BME280;22383;51.114;13.666;2023-04-08T07:28:01;67708.28;;;4.67;100.00
36354;BME280;22383;51.114;13.666;2023-04-08T07:30:29;67713.91;;;4.72;100.00
36354;BME280;22383;51.114;13.666;2023-04-08T07:32:56;67728.00;;;4.85;100.00
36354;BME280;22383;51.114;13.666;2023-04-08T07:35:26;67739.47;;;4.91;100.00
36354;BME280;22383;51.114;13.666;2023-04-08T07:37:54;67736.84;;;4.91;100.00
36354;BME280;22383;51.114;13.666;2023-04-08T07:40:23;67732.72;;;4.92;100.00
36354;BME280;22383;51.114;13.666;2023-04-08T07:42:51;67746.44;;;5.00;100.00
36354;BME280;22383;51.114;13.666;2023-04-08T07:45:18;67755.69;;;5.10;100.00
36354;BME280;22383;51.114;13.666;2023-04-08T07:47:46;67770.34;;;5.24;100.00
36354;BME280;22383;51.114;13.666;2023-04-08T07:50:13;67782.00;;;5.32;100.00
36354;BME280;22383;51.114;13.666;2023-04-08T07:52:40;67792.16;;;5.41;100.00
36354;BME280;22383;51.114;13.666;2023-04-08T07:55:08;67804.78;;;5.55;100.00
36354;BME280;22383;51.114;13.666;2023-04-08T07:57:35;67811.56;;;5.61;100.00
36354;BME280;22383;51.114;13.666;2023-04-08T08:00:02;67830.78;;;5.79;100.00
36354;BME280;22383;51.114;13.666;2023-04-08T08:02:39;67823.78;;;5.70;100.00
36354;BME280;22383;51.114;13.666;2023-04-08T08:05:06;67815.31;;;5.62;100.00
36354;BME280;22383;51.114;13.666;2023-04-08T08:07:34;67799.72;;;5.51;100.00
36354;BME280;22383;51.114;13.666;2023-04-08T08:10:01;67805.91;;;5.56;100.00
36354;BME280;22383;51.114;13.666;2023-04-08T08:12:28;67796.09;;;5.45;100.00
36354;BME280;22383;51.114;13.666;2023-04-08T08:14:58;67783.13;;;5.33;100.00
36354;BME280;22383;51.114;13.666;2023-04-08T08:17:25;67772.03;;;5.25;100.00
36354;BME280;22383;51.114;13.666;2023-04-08T08:19:56;67774.09;;;5.25;100.00
36354;BME280;22383;51.114;13.666;2023-04-08T08:22:23;67803.44;;;5.52;100.00
36354;BME280;22383;51.114;13.666;2023-04-08T08:24:57;67835.09;;;5.80;100.00
36354;BME280;22383;51.114;13.666;2023-04-08T08:27:25;67881.78;;;6.20;100.00
36354;BME280;22383;51.114;13.666;2023-04-08T08:29:52;67902.91;;;6.42;100.00
36354;BME280;22383;51.114;13.666;2023-04-08T08:32:19;67914.94;;;6.55;100.00
36354;BME280;22383;51.114;13.666;2023-04-08T08:34:46;67915.53;;;6.56;100.00
36354;BME280;22383;51.114;13.666;2023-04-08T08:37:14;67901.97;;;6.43;100.00
36354;BME280;22383;51.114;13.666;2023-04-08T08:39:41;67909.47;;;6.46;100.00
36354;BME280;22383;51.114;13.666;2023-04-08T08:42:37;67884.25;;;6.25;100.00
36354;BME280;22383;51.114;13.666;2023-04-08T08:45:06;67885.38;;;6.26;100.00
36354;BME280;22383;51.114;13.666;2023-04-08T08:47:34;67870.88;;;6.15;100.00
36354;BME280;22383;51.114;13.666;2023-04-08T08:50:01;67871.25;;;6.13;100.00
36354;BME280;22383;51.114;13.666;2023-04-08T08:52:28;67896.31;;;6.38;100.00
36354;BME280;22383;51.114;13.666;2023-04-08T08:54:57;67927.59;;;6.69;100.00
36354;BME280;22383;51.114;13.666;2023-04-08T08:57:25;67934.38;;;6.75;100.00
36354;BME280;22383;51.114;13.666;2023-04-08T08:59:53;67922.84;;;6.62;100.00
36354;BME280;22383;51.114;13.666;2023-04-08T09:02:29;67898.00;;;6.40;100.00
36354;BME280;22383;51.114;13.666;2023-04-08T09:05:00;67904.22;;;6.46;100.00
36354;BME280;22383;51.114;13.666;2023-04-08T09:07:42;67886.13;;;6.29;100.00
36354;BME280;22383;51.114;13.666;2023-04-08T09:10:09;67875.41;;;6.19;100.00
36354;BME280;22383;51.114;13.666;2023-04-08T09:12:52;67889.53;;;6.32;100.00
36354;BME280;22383;51.114;13.666;2023-04-08T09:15:20;67903.66;;;6.45;100.00
36354;BME280;22383;51.114;13.666;2023-04-08T09:17:47;67911.38;;;6.50;100.00
36354;BME280;22383;51.114;13.666;2023-04-08T09:20:15;67923.06;;;6.65;100.00
36354;BME280;22383;51.114;13.666;2023-04-08T09:27:54;67918.34;;;6.58;100.00
36354;BME280;22383;51.114;13.666;2023-04-08T09:30:23;67928.50;;;6.68;100.00
36354;BME280;22383;51.114;13.666;2023-04-08T09:32:52;67920.59;;;6.60;100.00
36354;BME280;22383;51.114;13.666;2023-04-08T09:35:21;67924.56;;;6.64;100.00
36354;BME280;22383;51.114;13.666;2023-04-08T09:37:52;67931.13;;;6.68;100.00
36354;BME280;22383;51.114;13.666;2023-04-08T09:40:19;67938.13;;;6.76;100.00
36354;BME280;22383;51.114;13.666;2023-04-08T09:42:48;67931.53;;;6.73;100.00
36354;BME280;22383;51.114;13.666;2023-04-08T09:45:18;67940.97;;;6.79;100.00
36354;BME280;22383;51.114;13.666;2023-04-08T09:47:55;67942.84;;;6.83;100.00
36354;BME280;22383;51.114;13.666;2023-04-08T09:50:26;67954.31;;;6.89;100.00
36354;BME280;22383;51.114;13.666;2023-04-08T09:53:13;67925.53;;;6.70;100.00
36354;BME280;22383;51.114;13.666;2023-04-08T09:55:49;67929.09;;;6.68;100.00
36354;BME280;22383;51.114;13.666;2023-04-08T09:58:32;67933.22;;;6.74;100.00
36354;BME280;22383;51.114;13.666;2023-04-08T10:01:00;67933.97;;;6.70;100.00
36354;BME280;22383;51.114;13.666;2023-04-08T10:03:33;67916.28;;;6.59;100.00
36354;BME280;22383;51.114;13.666;2023-04-08T10:06:02;67937.00;;;6.75;100.00
36354;BME280;22383;51.114;13.666;2023-04-08T10:08:30;67951.50;;;6.86;100.00
36354;BME280;22383;51.114;13.666;2023-04-08T10:10:58;67932.47;;;6.71;100.00
36354;BME280;22383;51.114;13.666;2023-04-08T10:13:26;67936.78;;;6.73;100.00
36354;BME280;22383;51.114;13.666;2023-04-08T10:16:18;67930.03;;;6.67;100.00
36354;BME280;22383;51.114;13.666;2023-04-08T10:18:47;67926.06;;;6.63;100.00
36354;BME280;22383;51.114;13.666;2023-04-08T10:23:59;67939.63;;;6.75;100.00
36354;BME280;22383;51.114;13.666;2023-04-08T10:26:33;67965.47;;;7.04;100.00
36354;BME280;22383;51.114;13.666;2023-04-08T10:31:48;68016.16;;;7.47;100.00
36354;BME280;22383;51.114;13.666;2023-04-08T10:34:20;68021.22;;;7.52;100.00
36354;BME280;22383;51.114;13.666;2023-04-08T10:36:49;68047.63;;;7.73;100.00
36354;BME280;22383;51.114;13.666;2023-04-08T10:39:16;68034.06;;;7.61;100.00
36354;BME280;22383;51.114;13.666;2023-04-08T10:41:49;68013.31;;;7.45;100.00
36354;BME280;22383;51.114;13.666;2023-04-08T10:44:18;68003.16;;;7.35;100.00
36354;BME280;22383;51.114;13.666;2023-04-08T10:46:46;68001.06;;;7.29;100.00
36354;BME280;22383;51.114;13.666;2023-04-08T10:49:17;67933.53;;;7.13;100.00
36354;BME280;22383;51.114;13.666;2023-04-08T10:51:45;67979.78;;;7.12;100.00
36354;BME280;22383;51.114;13.666;2023-04-08T10:54:14;67963.56;;;6.99;100.00
36354;BME280;22383;51.114;13.666;2023-04-08T10:56:47;67966.22;;;6.99;100.00
36354;BME280;22383;51.114;13.666;2023-04-08T10:59:16;67967.31;;;7.00;100.00
36354;BME280;22383;51.114;13.666;2023-04-08T11:01:46;67955.66;;;6.92;100.00
36354;BME280;22383;51.114;13.666;2023-04-08T11:04:14;67954.53;;;6.91;100.00
36354;BME280;22383;51.114;13.666;2023-04-08T11:06:42;67956.78;;;6.93;100.00
36354;BME280;22383;51.114;13.666;2023-04-08T11:09:10;67959.41;;;6.93;100.00
36354;BME280;22383;51.114;13.666;2023-04-08T11:11:40;67951.69;;;6.89;100.00
36354;BME280;22383;51.114;13.666;2023-04-08T11:14:09;67974.69;;;7.07;100.00
36354;BME280;22383;51.114;13.666;2023-04-08T11:16:38;67970.50;;;7.01;100.00
36354;BME280;22383;51.114;13.666;2023-04-08T11:19:05;67973.19;;;7.08;100.00
36354;BME280;22383;51.114;13.666;2023-04-08T11:21:35;67970.16;;;7.03;100.00
36354;BME280;22383;51.114;13.666;2023-04-08T11:24:09;67962.22;;;6.96;100.00
36354;BME280;22383;51.114;13.666;2023-04-08T11:26:38;67955.63;;;6.85;100.00
36354;BME280;22383;51.114;13.666;2023-04-08T11:29:09;67959.97;;;6.94;100.00
36354;BME280;22383;51.114;13.666;2023-04-08T11:31:41;67955.28;;;6.94;100.00
36354;BME280;22383;51.114;13.666;2023-04-08T11:34:10;67961.66;;;6.95;100.00
36354;BME280;22383;51.114;13.666;2023-04-08T11:36:39;67983.72;;;7.15;100.00
36354;BME280;22383;51.114;13.666;2023-04-08T11:39:10;67980.88;;;7.13;100.00
36354;BME280;22383;51.114;13.666;2023-04-08T11:41:51;67977.16;;;7.12;100.00
36354;BME280;22383;51.114;13.666;2023-04-08T11:44:30;67975.81;;;7.08;100.00
36354;BME280;22383;51.114;13.666;2023-04-08T11:47:04;67964.91;;;7.03;100.00
36354;BME280;22383;51.114;13.666;2023-04-08T11:49:47;67943.22;;;6.81;100.00
36354;BME280;22383;51.114;13.666;2023-04-08T11:52:14;67911.94;;;6.50;100.00
36354;BME280;22383;51.114;13.666;2023-04-08T11:54:44;67891.22;;;6.34;100.00
36354;BME280;22383;51.114;13.666;2023-04-08T11:57:16;67889.53;;;6.32;100.00
36354;BME280;22383;51.114;13.666;2023-04-08T11:59:54;67894.03;;;6.36;100.00
36354;BME280;22383;51.114;13.666;2023-04-08T12:02:22;67879.72;;;6.21;100.00
36354;BME280;22383;51.114;13.666;2023-04-08T12:04:49;67864.66;;;6.10;100.00
36354;BME280;22383;51.114;13.666;2023-04-08T12:07:24;67872.75;;;6.12;100.00
36354;BME280;22383;51.114;13.666;2023-04-08T12:09:51;67864.66;;;6.10;100.00
36354;BME280;22383;51.114;13.666;2023-04-08T12:12:20;67867.28;;;6.10;100.00
36354;BME280;22383;51.114;13.666;2023-04-08T12:14:47;67877.66;;;6.21;100.00
36354;BME280;22383;51.114;13.666;2023-04-08T12:17:14;67895.00;;;6.35;100.00
36354;BME280;22383;51.114;13.666;2023-04-08T12:19:44;67901.19;;;6.40;100.00
36354;BME280;22383;51.114;13.666;2023-04-08T12:22:14;67892.38;;;6.35;100.00
36354;BME280;22383;51.114;13.666;2023-04-08T12:24:51;67876.34;;;6.18;100.00
36354;BME280;22383;51.114;13.666;2023-04-08T12:27:18;67875.78;;;6.17;100.00
36354;BME280;22383;51.114;13.666;2023-04-08T12:29:49;67884.66;;;6.30;100.00
36354;BME280;22383;51.114;13.666;2023-04-08T12:32:22;67907.81;;;6.51;100.00
36354;BME280;22383;51.114;13.666;2023-04-08T12:34:53;67928.50;;;6.68;100.00
36354;BME280;22383;51.114;13.666;2023-04-08T12:37:20;67952.28;;;6.89;100.00
36354;BME280;22383;51.114;13.666;2023-04-08T12:39:47;67948.09;;;6.83;100.00
36354;BME280;22383;51.114;13.666;2023-04-08T12:42:15;67959.78;;;6.91;100.00
36354;BME280;22383;51.114;13.666;2023-04-08T12:44:42;67958.66;;;6.97;100.00
36354;BME280;22383;51.114;13.666;2023-04-08T12:47:10;67956.59;;;6.91;100.00
36354;BME280;22383;51.114;13.666;2023-04-08T12:49:38;67934.53;;;6.71;100.00
36354;BME280;22383;51.114;13.666;2023-04-08T12:52:08;67913.84;;;6.54;100.00
36354;BME280;22383;51.114;13.666;2023-04-08T12:54:43;67922.50;;;6.65;100.00
36354;BME280;22383;51.114;13.666;2023-04-08T12:57:12;67937.38;;;6.73;100.00
36354;BME280;22383;51.114;13.666;2023-04-08T12:59:39;67923.03;;;6.58;100.00
36354;BME280;22383;51.114;13.666;2023-04-08T13:02:06;67893.09;;;6.31;100.00
36354;BME280;22383;51.114;13.666;2023-04-08T13:04:35;67869.56;;;6.12;100.00
36354;BME280;22383;51.114;13.666;2023-04-08T13:07:20;67830.97;;;5.81;100.00
36354;BME280;22383;51.114;13.666;2023-04-08T13:09:53;67820.97;;;5.67;100.00
36354;BME280;22383;51.114;13.666;2023-04-08T13:12:21;67800.06;;;5.48;100.00
36354;BME280;22383;51.114;13.666;2023-04-08T13:14:51;67779.19;;;5.29;100.00
36354;BME280;22383;51.114;13.666;2023-04-08T13:17:18;67782.56;;;5.33;100.00
36354;BME280;22383;51.114;13.666;2023-04-08T13:19:46;67766.75;;;5.18;100.00
36354;BME280;22383;51.114;13.666;2023-04-08T13:22:19;67747.56;;;5.01;100.00